Rule, Texas
Current Conditions -  °F | °C
As of 4:58 AM on Wednesday 22 Oct 2014 (Local Time) from KDYS Reporting Station
Overcast Overcast  
Wind Chill: 63°   Ceiling: 13000
Heat Index: 63°   Visibility: 10mi
Dew Point: 49°   Wind: 5mph
Humidity: 61%   Direction: 180°S
Pressure: 30.07"   Gusts: NA
Location:  33.18°N, 99.89°W
Report Text: KDYS 220958Z AUTO 18004KT 10SM OVC130 17/10 A3007 RMK AO2 SLP147 T01710095
Loading
Personal Weather Stations






























Interactive Weather Map
Tropical Storm Tracking
New forecast layout! Learn more

10-Day Weather Forecast

Advertisements
Track Severe Weather on mobile